Badin Air National Guard Sta, North Carolina
Current Conditions -  °F | °C
As of 8:15 AM on Thursday 27 Nov 2014 (Local Time) from KVUJ Reporting Station
Scattered Clouds Scattered Clouds  
Wind Chill: 38°   Ceiling: Unl
Heat Index: 38°   Visibility: 7mi
Dew Point: 38°   Wind: 0mph
Humidity: 100%   Direction: NA
Pressure: 30.05"   Gusts: NA
Location:  35.4059°N, 80.1167°W
Report Text: KVUJ 271315Z AUTO 00000KT 7SM SCT042 SCT050 03/03 A3005 RMK AO2 T00340034
Loading
Personal Weather Stations






























Interactive Weather Map New forecast layout! Learn more

10-Day Weather Forecast

Advertisements
Track Severe Weather on mobile